createdAt,value
2023-03-27T00:01:57.183Z,6.50
2023-03-27T00:04:28.205Z,6.45
2023-03-27T00:06:56.392Z,6.39
2023-03-27T00:09:24.277Z,6.30
2023-03-27T00:11:52.691Z,6.38
2023-03-27T00:14:20.675Z,6.28
2023-03-27T00:16:48.673Z,6.31
2023-03-27T00:19:17.664Z,6.35
2023-03-27T00:21:48.076Z,6.26
2023-03-27T00:24:17.262Z,6.38
2023-03-27T00:26:45.279Z,6.30
2023-03-27T00:29:13.986Z,6.47
2023-03-27T00:31:42.769Z,6.38
2023-03-27T00:34:11.729Z,6.50
2023-03-27T00:36:39.500Z,6.34
2023-03-27T00:39:08.808Z,6.33
2023-03-27T00:41:36.776Z,6.41
2023-03-27T00:44:23.764Z,6.23
2023-03-27T00:46:54.822Z,6.27
2023-03-27T00:49:24.846Z,6.30
2023-03-27T00:51:53.923Z,6.09
2023-03-27T00:54:26.882Z,6.06
2023-03-27T00:56:56.715Z,5.82
2023-03-27T00:59:28.994Z,5.74
2023-03-27T01:01:57.749Z,5.94
2023-03-27T01:04:25.897Z,6.07
2023-03-27T01:06:56.852Z,5.64
2023-03-27T01:09:27.901Z,5.70
2023-03-27T01:12:10.334Z,5.59
2023-03-27T01:14:50.349Z,5.41
2023-03-27T01:17:41.741Z,5.50
2023-03-27T01:20:36.983Z,5.21
2023-03-27T01:24:00.570Z,5.35
2023-03-27T01:27:01.637Z,5.11
2023-03-27T01:29:58.293Z,5.06
2023-03-27T01:33:05.444Z,5.02
2023-03-27T01:36:11.506Z,5.00
2023-03-27T01:39:11.719Z,4.71
2023-03-27T01:41:48.334Z,4.80
2023-03-27T01:44:21.132Z,4.64
2023-03-27T01:46:54.547Z,4.61
2023-03-27T01:49:29.641Z,4.54
2023-03-27T01:52:02.713Z,4.47
2023-03-27T01:54:35.125Z,4.54
2023-03-27T01:57:10.180Z,4.38
2023-03-27T01:59:42.647Z,4.30
2023-03-27T02:02:14.715Z,4.41
2023-03-27T02:04:50.331Z,4.42
2023-03-27T02:07:22.888Z,4.39
2023-03-27T02:09:56.778Z,4.19
2023-03-27T02:12:28.920Z,4.01
2023-03-27T02:15:23.535Z,4.09
2023-03-27T02:17:58.024Z,3.97
2023-03-27T02:20:25.972Z,3.89
2023-03-27T02:23:00.724Z,3.90
2023-03-27T02:25:33.141Z,3.85
2023-03-27T02:28:37.114Z,3.65
2023-03-27T02:31:32.584Z,3.74
2023-03-27T02:34:22.585Z,3.73
2023-03-27T02:36:56.586Z,3.65
2023-03-27T02:39:43.089Z,3.45
2023-03-27T02:42:18.820Z,3.56
2023-03-27T02:45:08.619Z,3.48
2023-03-27T02:47:41.947Z,3.42
2023-03-27T02:50:14.799Z,3.48
2023-03-27T02:52:45.501Z,3.49
2023-03-27T02:55:18.987Z,3.35
2023-03-27T02:57:52.447Z,3.42
2023-03-27T03:00:28.172Z,3.52
2023-03-27T03:03:27.919Z,3.41
2023-03-27T03:06:07.030Z,3.44
2023-03-27T03:08:38.317Z,3.36
2023-03-27T03:11:11.696Z,3.41
2023-03-27T03:13:42.213Z,3.54
2023-03-27T03:16:11.304Z,3.34
2023-03-27T03:18:40.902Z,3.12
2023-03-27T03:21:08.848Z,3.52
2023-03-27T03:23:37.424Z,3.61
2023-03-27T03:26:07.608Z,3.36
2023-03-27T03:29:00.449Z,3.16
2023-03-27T03:31:43.246Z,3.02
2023-03-27T03:34:12.505Z,3.28
2023-03-27T03:36:41.997Z,3.13
2023-03-27T03:39:11.446Z,3.03
2023-03-27T03:41:39.510Z,3.12
2023-03-27T03:44:09.941Z,3.07
2023-03-27T03:46:38.635Z,3.09
2023-03-27T03:49:07.387Z,3.11
2023-03-27T03:51:36.351Z,2.91
2023-03-27T03:54:05.468Z,3.03
2023-03-27T03:56:34.416Z,2.95
2023-03-27T03:59:02.775Z,2.73
2023-03-27T04:01:33.865Z,2.63
2023-03-27T04:04:04.615Z,2.79
2023-03-27T04:06:53.154Z,2.70
2023-03-27T04:09:21.727Z,2.66
2023-03-27T04:12:15.732Z,2.58
2023-03-27T04:14:51.236Z,2.56
2023-03-27T04:17:50.785Z,2.68
2023-03-27T04:20:19.471Z,2.53
2023-03-27T04:22:50.933Z,2.53
2023-03-27T04:25:22.160Z,2.48
2023-03-27T04:27:52.270Z,2.54
2023-03-27T04:30:27.688Z,2.53
2023-03-27T04:33:19.348Z,2.41
2023-03-27T04:36:19.210Z,2.39
2023-03-27T04:39:02.345Z,2.62
2023-03-27T04:41:32.624Z,2.52
2023-03-27T04:44:00.588Z,2.49
2023-03-27T04:46:30.753Z,2.50
2023-03-27T04:49:09.218Z,2.45
2023-03-27T04:51:50.651Z,2.50
2023-03-27T04:54:22.793Z,2.38
2023-03-27T04:56:50.964Z,2.54
2023-03-27T04:59:19.046Z,2.49
2023-03-27T05:02:00.075Z,2.52
2023-03-27T05:04:40.389Z,2.45
2023-03-27T05:07:16.190Z,2.44
2023-03-27T05:09:44.058Z,2.50
2023-03-27T05:12:12.198Z,2.44
2023-03-27T05:14:50.256Z,2.35
2023-03-27T05:17:40.850Z,2.31
2023-03-27T05:20:14.468Z,2.63
2023-03-27T05:22:43.936Z,2.48
2023-03-27T05:25:28.650Z,2.30
2023-03-27T05:27:57.945Z,2.24
2023-03-27T05:30:30.102Z,2.20
2023-03-27T05:33:16.413Z,2.29
2023-03-27T05:35:47.201Z,2.55
2023-03-27T05:38:16.358Z,2.48
2023-03-27T05:40:54.127Z,2.55
2023-03-27T05:43:23.293Z,2.54
2023-03-27T05:45:51.723Z,2.51
2023-03-27T05:48:19.642Z,2.60
2023-03-27T05:50:49.066Z,2.66
2023-03-27T05:53:28.450Z,2.67
2023-03-27T05:56:15.507Z,2.85
2023-03-27T05:58:55.646Z,2.85
2023-03-27T06:01:25.750Z,2.92
2023-03-27T06:03:56.694Z,3.00
2023-03-27T06:06:50.378Z,2.93
2023-03-27T06:09:19.471Z,2.98
2023-03-27T06:12:07.469Z,3.02
2023-03-27T06:14:39.564Z,3.18
2023-03-27T06:17:26.558Z,3.05
2023-03-27T06:20:00.756Z,3.36
2023-03-27T06:22:33.731Z,3.29
2023-03-27T06:25:06.854Z,3.35
2023-03-27T06:27:36.176Z,3.19
2023-03-27T06:30:08.143Z,3.25
2023-03-27T06:32:37.041Z,3.36
2023-03-27T06:35:11.229Z,3.22
2023-03-27T06:37:59.031Z,3.29
2023-03-27T06:40:31.376Z,3.36
2023-03-27T06:43:02.684Z,3.39
2023-03-27T06:45:50.859Z,3.62
2023-03-27T06:48:37.713Z,3.74
2023-03-27T06:51:07.925Z,3.80
2023-03-27T06:53:38.195Z,3.84
2023-03-27T06:56:08.045Z,3.96
2023-03-27T06:58:59.143Z,4.06
2023-03-27T07:01:29.486Z,4.28
2023-03-27T07:04:12.359Z,4.23
2023-03-27T07:07:00.784Z,4.15
2023-03-27T07:09:36.734Z,4.35
2023-03-27T07:12:09.556Z,4.48
2023-03-27T07:14:39.345Z,4.46
2023-03-27T07:17:09.193Z,4.47
2023-03-27T07:19:56.525Z,4.68
2023-03-27T07:22:29.790Z,4.73
2023-03-27T07:25:04.467Z,4.82
2023-03-27T07:27:38.825Z,5.31
2023-03-27T07:30:08.862Z,5.06
2023-03-27T07:32:38.161Z,5.21
2023-03-27T07:35:09.201Z,5.53
2023-03-27T07:38:01.195Z,5.44
2023-03-27T07:40:53.334Z,6.01
2023-03-27T07:43:44.039Z,5.87
2023-03-27T07:46:12.304Z,6.55
2023-03-27T07:48:41.144Z,6.82
2023-03-27T07:51:17.037Z,7.01
2023-03-27T07:53:45.069Z,7.59
2023-03-27T07:56:23.388Z,7.52
2023-03-27T07:59:06.437Z,7.34
2023-03-27T08:01:34.965Z,7.76
2023-03-27T08:04:04.055Z,7.79
2023-03-27T08:06:35.129Z,7.89
2023-03-27T08:09:05.487Z,8.21
2023-03-27T08:11:37.548Z,8.50
2023-03-27T08:14:07.399Z,8.23
2023-03-27T08:16:37.019Z,7.89
2023-03-27T08:19:06.274Z,7.45
2023-03-27T08:21:38.768Z,7.61
2023-03-27T08:24:07.722Z,7.96
2023-03-27T08:26:38.194Z,8.13
2023-03-27T08:29:12.705Z,7.79
2023-03-27T08:31:43.075Z,8.06
2023-03-27T08:34:11.032Z,8.53
2023-03-27T08:36:46.951Z,9.37
2023-03-27T08:39:16.676Z,9.35
2023-03-27T08:41:56.721Z,9.55
2023-03-27T08:44:36.992Z,9.62
2023-03-27T08:47:15.870Z,8.36
2023-03-27T08:49:55.064Z,8.02
2023-03-27T08:52:37.456Z,8.05
2023-03-27T08:55:18.639Z,8.94
2023-03-27T08:57:58.081Z,9.49
2023-03-27T09:00:35.539Z,9.47
2023-03-27T09:03:31.573Z,9.57
2023-03-27T09:06:06.578Z,8.75
2023-03-27T09:08:44.742Z,8.00
2023-03-27T09:11:31.919Z,8.07
2023-03-27T09:14:10.043Z,7.50
2023-03-27T09:16:48.992Z,7.79
2023-03-27T09:19:38.775Z,7.43
2023-03-27T09:22:15.253Z,6.98
2023-03-27T09:24:57.963Z,6.74
2023-03-27T09:27:29.763Z,6.58
2023-03-27T09:30:24.474Z,6.62
2023-03-27T09:33:04.945Z,6.71
2023-03-27T09:35:38.779Z,7.00
2023-03-27T09:38:24.801Z,7.35
2023-03-27T09:40:58.442Z,7.79
2023-03-27T09:43:42.165Z,7.49
2023-03-27T09:46:18.638Z,7.27
2023-03-27T09:48:59.118Z,6.91
2023-03-27T09:51:42.461Z,7.28
2023-03-27T09:54:18.975Z,8.10
2023-03-27T09:56:49.853Z,9.00
2023-03-27T09:59:27.730Z,9.43
2023-03-27T10:02:19.180Z,9.99
2023-03-27T10:05:00.767Z,9.98
2023-03-27T10:07:33.904Z,10.54
2023-03-27T10:10:46.046Z,10.14
2023-03-27T10:13:33.807Z,10.41
2023-03-27T10:16:05.035Z,10.45
2023-03-27T10:18:47.101Z,10.22
2023-03-27T10:21:26.735Z,10.89
2023-03-27T10:24:02.205Z,10.20
2023-03-27T10:26:49.028Z,10.35
2023-03-27T10:29:24.698Z,10.54
2023-03-27T10:31:54.704Z,10.43
2023-03-27T10:34:51.528Z,10.16
2023-03-27T10:37:41.842Z,10.44
2023-03-27T10:40:39.439Z,10.41
2023-03-27T10:43:17.979Z,9.45
2023-03-27T10:45:50.620Z,8.63
2023-03-27T10:48:34.630Z,8.27
2023-03-27T10:51:07.665Z,7.93
2023-03-27T10:54:07.811Z,7.57
2023-03-27T10:56:54.708Z,7.89
2023-03-27T10:59:38.618Z,7.73
2023-03-27T11:02:17.730Z,8.23
2023-03-27T11:04:53.085Z,8.86
2023-03-27T11:07:33.893Z,8.85
2023-03-27T11:10:12.422Z,9.82
2023-03-27T11:12:46.307Z,9.80
2023-03-27T11:15:22.362Z,9.74
2023-03-27T11:17:58.968Z,9.69
2023-03-27T11:20:47.633Z,10.28
2023-03-27T11:23:31.187Z,10.33
2023-03-27T11:26:30.784Z,9.56
2023-03-27T11:29:06.091Z,9.07
2023-03-27T11:31:52.722Z,8.76
2023-03-27T11:34:49.209Z,8.74
2023-03-27T11:37:42.462Z,9.23
2023-03-27T11:40:20.401Z,10.10
2023-03-27T11:42:52.624Z,9.69
2023-03-27T11:45:25.846Z,9.07
2023-03-27T11:48:11.183Z,9.18
2023-03-27T11:50:54.890Z,9.23
2023-03-27T11:53:36.916Z,9.21
2023-03-27T11:56:32.022Z,9.24
2023-03-27T11:59:27.534Z,10.45
2023-03-27T12:02:11.589Z,10.17
2023-03-27T12:04:48.503Z,9.79
2023-03-27T12:07:52.916Z,9.36
2023-03-27T12:10:33.272Z,8.94
2023-03-27T12:13:41.308Z,8.57
2023-03-27T12:16:40.182Z,8.16
2023-03-27T12:19:38.440Z,7.80
2023-03-27T12:22:32.017Z,7.65
2023-03-27T12:25:27.215Z,7.33
2023-03-27T12:28:46.522Z,7.23
2023-03-27T12:31:49.779Z,7.78
2023-03-27T12:34:36.634Z,9.17
2023-03-27T12:37:07.856Z,10.13
2023-03-27T12:39:47.110Z,10.70
2023-03-27T12:42:44.028Z,10.94
2023-03-27T12:45:21.128Z,11.06
2023-03-27T12:48:20.563Z,11.45
2023-03-27T12:50:59.333Z,11.42
2023-03-27T12:53:52.670Z,11.39
2023-03-27T12:56:36.294Z,11.76
2023-03-27T12:59:20.196Z,11.79
2023-03-27T13:02:39.680Z,12.19
2023-03-27T13:05:43.331Z,10.69
2023-03-27T13:08:43.626Z,9.87
2023-03-27T13:11:28.875Z,8.50
2023-03-27T13:14:40.564Z,7.70
2023-03-27T13:17:48.114Z,7.45
2023-03-27T13:20:27.483Z,7.15
2023-03-27T13:23:28.982Z,6.96
2023-03-27T13:26:11.009Z,6.78
2023-03-27T13:28:48.549Z,7.20
2023-03-27T13:31:51.925Z,7.59
2023-03-27T13:34:42.344Z,7.95
2023-03-27T13:37:48.143Z,7.85
2023-03-27T13:40:20.598Z,7.54
2023-03-27T13:42:54.581Z,7.64
2023-03-27T13:45:27.239Z,7.73
2023-03-27T13:49:04.879Z,7.98
2023-03-27T13:52:09.930Z,8.88
2023-03-27T13:55:06.585Z,9.96
2023-03-27T13:58:08.187Z,9.99
2023-03-27T14:00:56.848Z,10.43
2023-03-27T14:03:59.518Z,9.89
2023-03-27T14:07:20.199Z,10.40
2023-03-27T14:10:32.192Z,10.47
2023-03-27T14:13:21.526Z,10.35
2023-03-27T14:16:23.948Z,9.47
2023-03-27T14:19:44.953Z,10.18
2023-03-27T14:22:26.283Z,10.37
2023-03-27T14:25:01.170Z,10.61
2023-03-27T14:27:37.292Z,10.63
2023-03-27T14:30:15.701Z,10.79
2023-03-27T14:32:50.725Z,11.16
2023-03-27T14:35:41.231Z,10.96
2023-03-27T14:38:22.878Z,10.75
2023-03-27T14:40:52.875Z,10.76
2023-03-27T14:43:31.907Z,10.75
2023-03-27T14:46:04.304Z,10.02
2023-03-27T14:48:38.237Z,10.25
2023-03-27T14:51:13.664Z,9.93
2023-03-27T14:53:47.139Z,9.31
2023-03-27T14:56:29.536Z,8.91
2023-03-27T14:59:01.607Z,8.51
2023-03-27T15:01:42.156Z,8.89
2023-03-27T15:04:12.830Z,8.69
2023-03-27T15:06:43.135Z,8.49
2023-03-27T15:09:19.442Z,8.45
2023-03-27T15:12:12.528Z,8.43
2023-03-27T15:14:43.432Z,8.12
2023-03-27T15:17:18.577Z,8.38
2023-03-27T15:19:51.090Z,8.34
2023-03-27T15:22:27.460Z,8.36
2023-03-27T15:25:03.749Z,8.48
2023-03-27T15:27:35.144Z,8.61
2023-03-27T15:30:09.745Z,8.78
2023-03-27T15:32:44.045Z,9.19
2023-03-27T15:35:18.173Z,8.89
2023-03-27T15:37:49.898Z,8.72
2023-03-27T15:40:36.902Z,8.57
2023-03-27T15:43:20.989Z,8.73
2023-03-27T15:46:01.778Z,8.53
2023-03-27T15:48:35.779Z,8.59
2023-03-27T15:51:06.533Z,8.56
2023-03-27T15:53:37.249Z,8.51
2023-03-27T15:56:17.141Z,8.65
2023-03-27T15:58:49.745Z,8.55
2023-03-27T16:01:21.635Z,8.58
2023-03-27T16:03:52.219Z,8.78
2023-03-27T16:06:27.834Z,8.53
2023-03-27T16:08:56.875Z,8.37
2023-03-27T16:11:46.015Z,8.53
2023-03-27T16:14:24.550Z,8.25
2023-03-27T16:17:09.675Z,8.09
2023-03-27T16:19:46.010Z,8.04
2023-03-27T16:22:15.055Z,8.09
2023-03-27T16:24:43.823Z,7.89
2023-03-27T16:27:14.276Z,7.85
2023-03-27T16:29:42.156Z,7.81
2023-03-27T16:32:15.503Z,7.92
2023-03-27T16:34:44.367Z,7.74
2023-03-27T16:37:12.812Z,7.74
2023-03-27T16:39:41.115Z,7.48
2023-03-27T16:42:14.494Z,7.48
2023-03-27T16:44:42.431Z,7.57
2023-03-27T16:47:10.374Z,7.67
2023-03-27T16:49:38.626Z,8.04
2023-03-27T16:52:06.616Z,7.72
2023-03-27T16:54:34.731Z,7.97
2023-03-27T16:57:03.265Z,7.66
2023-03-27T16:59:32.658Z,7.93
2023-03-27T17:02:00.574Z,7.65
2023-03-27T17:04:28.444Z,7.41
2023-03-27T17:06:56.762Z,7.51
2023-03-27T17:09:24.739Z,7.60
2023-03-27T17:11:52.480Z,7.26
2023-03-27T17:14:20.683Z,7.44
2023-03-27T17:16:51.263Z,7.14
2023-03-27T17:19:19.535Z,7.01
2023-03-27T17:21:47.323Z,6.70
2023-03-27T17:24:17.651Z,6.78
2023-03-27T17:26:45.864Z,6.34
2023-03-27T17:29:13.745Z,6.18
2023-03-27T17:31:41.586Z,5.77
2023-03-27T17:34:11.030Z,5.75
2023-03-27T17:36:47.209Z,5.70
2023-03-27T17:39:18.413Z,5.60
2023-03-27T17:41:46.439Z,5.52
2023-03-27T17:44:14.965Z,5.39
2023-03-27T17:46:44.458Z,5.47
2023-03-27T17:49:13.943Z,5.44
2023-03-27T17:51:42.636Z,5.50
2023-03-27T17:54:10.765Z,5.36
2023-03-27T17:56:40.637Z,5.36
2023-03-27T17:59:11.134Z,5.27
2023-03-27T18:01:39.863Z,5.37
2023-03-27T18:04:08.090Z,5.31
2023-03-27T18:06:38.109Z,5.27
2023-03-27T18:09:07.492Z,5.44
2023-03-27T18:11:35.729Z,5.37
2023-03-27T18:14:04.164Z,5.51
2023-03-27T18:16:32.129Z,5.23
2023-03-27T18:19:02.316Z,5.00
2023-03-27T18:21:30.374Z,4.94
2023-03-27T18:24:00.637Z,4.90
2023-03-27T18:26:28.881Z,4.84
2023-03-27T18:28:57.921Z,4.84
2023-03-27T18:31:27.185Z,4.73
2023-03-27T18:33:55.975Z,4.67
2023-03-27T18:36:24.864Z,4.69
2023-03-27T18:38:53.821Z,4.66
2023-03-27T18:41:24.666Z,4.55
2023-03-27T18:43:52.822Z,4.58
2023-03-27T18:46:21.706Z,4.43
2023-03-27T18:48:49.961Z,4.35
2023-03-27T18:51:19.323Z,4.34
2023-03-27T18:53:47.606Z,4.43
2023-03-27T18:56:16.723Z,4.43
2023-03-27T18:58:47.261Z,4.38
2023-03-27T19:01:16.095Z,4.26
2023-03-27T19:03:44.705Z,4.31
2023-03-27T19:06:13.602Z,4.16
2023-03-27T19:08:43.068Z,4.10
2023-03-27T19:11:12.222Z,4.17
2023-03-27T19:14:00.700Z,4.08
2023-03-27T19:16:38.545Z,4.04
2023-03-27T19:19:16.103Z,4.12
2023-03-27T19:22:06.236Z,4.08
2023-03-27T19:24:43.182Z,4.12
2023-03-27T19:27:23.450Z,4.18
2023-03-27T19:29:54.209Z,4.06
2023-03-27T19:32:25.623Z,4.00
2023-03-27T19:34:53.807Z,4.09
2023-03-27T19:37:21.916Z,4.05
2023-03-27T19:39:50.759Z,4.07
2023-03-27T19:42:18.880Z,4.14
2023-03-27T19:44:47.446Z,4.21
2023-03-27T19:47:17.497Z,4.27
2023-03-27T19:49:45.962Z,4.28
2023-03-27T19:52:33.115Z,4.33
2023-03-27T19:55:02.678Z,4.34
2023-03-27T19:57:31.716Z,4.54
2023-03-27T19:59:59.828Z,4.70
2023-03-27T20:02:30.297Z,4.53
2023-03-27T20:04:59.147Z,4.55
2023-03-27T20:07:27.496Z,4.45
2023-03-27T20:09:56.381Z,4.41
2023-03-27T20:12:25.038Z,4.54
2023-03-27T20:15:07.067Z,4.68
2023-03-27T20:17:44.430Z,4.62
2023-03-27T20:20:12.849Z,4.46
2023-03-27T20:22:56.854Z,4.36
2023-03-27T20:25:28.043Z,4.31
2023-03-27T20:28:01.422Z,4.28
2023-03-27T20:30:30.560Z,4.48
2023-03-27T20:33:03.412Z,4.37
2023-03-27T20:35:33.692Z,4.35
2023-03-27T20:38:05.308Z,4.15
2023-03-27T20:40:52.390Z,4.02
2023-03-27T20:43:24.426Z,3.95
2023-03-27T20:45:54.936Z,3.91
2023-03-27T20:48:25.374Z,3.89
2023-03-27T20:50:55.480Z,3.82
2023-03-27T20:53:30.477Z,3.76
2023-03-27T20:56:01.874Z,3.74
2023-03-27T20:58:30.719Z,3.76
2023-03-27T21:01:03.746Z,3.77
2023-03-27T21:03:35.202Z,3.61
2023-03-27T21:06:08.536Z,3.67
2023-03-27T21:08:38.190Z,3.74
2023-03-27T21:11:07.463Z,3.77
2023-03-27T21:13:37.229Z,3.81
2023-03-27T21:16:06.289Z,3.79
2023-03-27T21:18:36.092Z,3.69
2023-03-27T21:21:04.931Z,3.70
2023-03-27T21:23:33.135Z,3.74
2023-03-27T21:26:02.121Z,3.63
2023-03-27T21:28:30.582Z,3.70
2023-03-27T21:30:59.609Z,3.64
2023-03-27T21:33:27.912Z,3.61
2023-03-27T21:35:57.540Z,3.61
2023-03-27T21:38:25.888Z,3.67
2023-03-27T21:40:54.542Z,3.61
2023-03-27T21:43:22.690Z,3.58
2023-03-27T21:45:51.210Z,3.58
2023-03-27T21:48:19.623Z,3.56
2023-03-27T21:50:48.187Z,3.39
2023-03-27T21:53:18.050Z,3.48
2023-03-27T21:55:46.654Z,3.51
2023-03-27T21:58:14.777Z,3.54
2023-03-27T22:00:45.094Z,3.40
2023-03-27T22:03:12.807Z,3.32
2023-03-27T22:05:41.107Z,3.33
2023-03-27T22:08:08.917Z,3.36
2023-03-27T22:10:38.738Z,3.40
2023-03-27T22:13:06.514Z,3.36
2023-03-27T22:15:34.321Z,3.27
2023-03-27T22:18:02.238Z,3.28
2023-03-27T22:20:30.378Z,3.29
2023-03-27T22:22:58.271Z,3.25
2023-03-27T22:25:25.970Z,3.27
2023-03-27T22:27:55.187Z,3.52
2023-03-27T22:30:23.258Z,3.52
2023-03-27T22:32:51.260Z,3.61
2023-03-27T22:35:19.507Z,3.60
2023-03-27T22:37:49.511Z,3.70
2023-03-27T22:40:17.964Z,3.62
2023-03-27T22:42:45.886Z,3.57
2023-03-27T22:45:15.431Z,3.51
2023-03-27T22:47:43.334Z,3.50
2023-03-27T22:50:11.498Z,3.42
2023-03-27T22:52:39.210Z,3.32
2023-03-27T22:55:08.357Z,3.26
2023-03-27T22:57:36.635Z,3.25
2023-03-27T23:00:05.001Z,3.27
2023-03-27T23:02:34.792Z,3.27
2023-03-27T23:05:04.386Z,3.29
2023-03-27T23:07:32.541Z,3.45
2023-03-27T23:10:00.837Z,3.28
2023-03-27T23:12:28.676Z,3.23
2023-03-27T23:14:56.554Z,3.11
2023-03-27T23:17:24.532Z,3.16
2023-03-27T23:19:53.679Z,3.18
2023-03-27T23:22:22.064Z,3.05
2023-03-27T23:24:50.281Z,2.99
2023-03-27T23:27:18.431Z,2.86
2023-03-27T23:29:47.993Z,2.77
2023-03-27T23:32:15.922Z,2.72
2023-03-27T23:34:43.700Z,2.61
2023-03-27T23:37:12.763Z,2.53
2023-03-27T23:39:40.579Z,2.50
2023-03-27T23:42:08.358Z,2.40
2023-03-27T23:44:36.266Z,2.38
2023-03-27T23:47:05.617Z,2.52
2023-03-27T23:49:33.291Z,2.61
2023-03-27T23:52:01.343Z,2.76
2023-03-27T23:54:31.229Z,2.75
2023-03-27T23:56:59.357Z,2.71
2023-03-27T23:59:27.067Z,2.67
